sensor_id;sensor_type;location;lat;lon;timestamp;P1;durP1;ratioP1;P2;durP2;ratioP2
18580;SDS011;9420;50.876;7.012;2023-12-07T00:00:40;30.87;;;18.53;;
18580;SDS011;9420;50.876;7.012;2023-12-07T00:03:06;30.00;;;18.00;;
18580;SDS011;9420;50.876;7.012;2023-12-07T00:05:33;29.07;;;19.13;;
18580;SDS011;9420;50.876;7.012;2023-12-07T00:08:00;31.07;;;19.10;;
18580;SDS011;9420;50.876;7.012;2023-12-07T00:10:26;32.70;;;19.23;;
18580;SDS011;9420;50.876;7.012;2023-12-07T00:12:53;31.37;;;17.57;;
18580;SDS011;9420;50.876;7.012;2023-12-07T00:15:20;27.00;;;16.57;;
18580;SDS011;9420;50.876;7.012;2023-12-07T00:17:48;31.83;;;17.43;;
18580;SDS011;9420;50.876;7.012;2023-12-07T00:20:14;29.50;;;17.30;;
18580;SDS011;9420;50.876;7.012;2023-12-07T00:22:41;28.13;;;17.50;;
18580;SDS011;9420;50.876;7.012;2023-12-07T00:28:12;34.17;;;19.90;;
18580;SDS011;9420;50.876;7.012;2023-12-07T00:30:39;40.47;;;18.73;;
18580;SDS011;9420;50.876;7.012;2023-12-07T00:33:08;35.17;;;20.37;;
18580;SDS011;9420;50.876;7.012;2023-12-07T00:35:35;33.37;;;19.80;;
18580;SDS011;9420;50.876;7.012;2023-12-07T00:38:02;34.13;;;19.77;;
18580;SDS011;9420;50.876;7.012;2023-12-07T00:40:28;32.47;;;19.67;;
18580;SDS011;9420;50.876;7.012;2023-12-07T00:42:55;31.17;;;18.97;;
18580;SDS011;9420;50.876;7.012;2023-12-07T00:45:21;29.47;;;17.97;;
18580;SDS011;9420;50.876;7.012;2023-12-07T00:47:48;31.13;;;19.63;;
18580;SDS011;9420;50.876;7.012;2023-12-07T00:50:16;28.97;;;17.07;;
18580;SDS011;9420;50.876;7.012;2023-12-07T00:52:43;31.83;;;19.63;;
18580;SDS011;9420;50.876;7.012;2023-12-07T00:55:10;32.63;;;20.20;;
18580;SDS011;9420;50.876;7.012;2023-12-07T00:57:36;39.60;;;22.17;;
18580;SDS011;9420;50.876;7.012;2023-12-07T01:00:04;39.63;;;21.33;;
18580;SDS011;9420;50.876;7.012;2023-12-07T01:02:31;36.40;;;21.17;;
18580;SDS011;9420;50.876;7.012;2023-12-07T01:04:58;32.57;;;19.73;;
18580;SDS011;9420;50.876;7.012;2023-12-07T01:07:26;31.70;;;19.30;;
18580;SDS011;9420;50.876;7.012;2023-12-07T01:09:53;33.83;;;18.63;;
18580;SDS011;9420;50.876;7.012;2023-12-07T01:12:20;29.27;;;17.63;;
18580;SDS011;9420;50.876;7.012;2023-12-07T01:14:47;27.60;;;16.50;;
18580;SDS011;9420;50.876;7.012;2023-12-07T01:17:13;28.97;;;16.07;;
18580;SDS011;9420;50.876;7.012;2023-12-07T01:19:40;24.00;;;16.80;;
18580;SDS011;9420;50.876;7.012;2023-12-07T01:22:06;27.93;;;17.70;;
18580;SDS011;9420;50.876;7.012;2023-12-07T01:24:35;31.57;;;17.23;;
18580;SDS011;9420;50.876;7.012;2023-12-07T01:27:02;26.67;;;16.17;;
18580;SDS011;9420;50.876;7.012;2023-12-07T01:29:28;29.13;;;15.77;;
18580;SDS011;9420;50.876;7.012;2023-12-07T01:31:55;27.13;;;15.90;;
18580;SDS011;9420;50.876;7.012;2023-12-07T01:34:22;25.03;;;15.53;;
18580;SDS011;9420;50.876;7.012;2023-12-07T01:36:48;26.00;;;16.40;;
18580;SDS011;9420;50.876;7.012;2023-12-07T01:39:15;26.20;;;17.20;;
18580;SDS011;9420;50.876;7.012;2023-12-07T01:41:43;24.57;;;16.70;;
18580;SDS011;9420;50.876;7.012;2023-12-07T01:44:10;28.17;;;17.90;;
18580;SDS011;9420;50.876;7.012;2023-12-07T01:46:36;29.47;;;16.53;;
18580;SDS011;9420;50.876;7.012;2023-12-07T01:49:03;23.27;;;16.20;;
18580;SDS011;9420;50.876;7.012;2023-12-07T01:51:30;29.37;;;17.13;;
18580;SDS011;9420;50.876;7.012;2023-12-07T01:53:57;26.10;;;17.03;;
18580;SDS011;9420;50.876;7.012;2023-12-07T01:56:24;25.43;;;15.17;;
18580;SDS011;9420;50.876;7.012;2023-12-07T01:58:53;31.97;;;16.13;;
18580;SDS011;9420;50.876;7.012;2023-12-07T02:01:20;24.90;;;15.93;;
18580;SDS011;9420;50.876;7.012;2023-12-07T02:03:47;27.93;;;16.77;;
18580;SDS011;9420;50.876;7.012;2023-12-07T02:06:14;29.60;;;17.20;;
18580;SDS011;9420;50.876;7.012;2023-12-07T02:08:41;32.17;;;17.20;;
18580;SDS011;9420;50.876;7.012;2023-12-07T02:11:07;34.93;;;18.07;;
18580;SDS011;9420;50.876;7.012;2023-12-07T02:13:35;29.87;;;17.67;;
18580;SDS011;9420;50.876;7.012;2023-12-07T02:16:05;27.73;;;17.00;;
18580;SDS011;9420;50.876;7.012;2023-12-07T02:18:38;26.80;;;15.90;;
18580;SDS011;9420;50.876;7.012;2023-12-07T02:21:12;29.10;;;16.70;;
18580;SDS011;9420;50.876;7.012;2023-12-07T02:23:42;29.27;;;16.67;;
18580;SDS011;9420;50.876;7.012;2023-12-07T02:29:32;28.33;;;18.33;;
18580;SDS011;9420;50.876;7.012;2023-12-07T02:31:59;29.47;;;16.23;;
18580;SDS011;9420;50.876;7.012;2023-12-07T02:34:26;29.03;;;18.30;;
18580;SDS011;9420;50.876;7.012;2023-12-07T02:36:53;24.87;;;15.77;;
18580;SDS011;9420;50.876;7.012;2023-12-07T02:39:22;26.53;;;16.73;;
18580;SDS011;9420;50.876;7.012;2023-12-07T02:41:50;23.77;;;15.90;;
18580;SDS011;9420;50.876;7.012;2023-12-07T02:44:19;26.63;;;16.03;;
18580;SDS011;9420;50.876;7.012;2023-12-07T02:46:47;26.47;;;15.67;;
18580;SDS011;9420;50.876;7.012;2023-12-07T02:49:15;26.50;;;14.67;;
18580;SDS011;9420;50.876;7.012;2023-12-07T02:51:41;22.27;;;15.37;;
18580;SDS011;9420;50.876;7.012;2023-12-07T02:54:08;22.57;;;15.63;;
18580;SDS011;9420;50.876;7.012;2023-12-07T02:56:34;22.57;;;15.20;;
18580;SDS011;9420;50.876;7.012;2023-12-07T02:59:01;26.30;;;15.57;;
18580;SDS011;9420;50.876;7.012;2023-12-07T03:01:28;21.20;;;14.70;;
18580;SDS011;9420;50.876;7.012;2023-12-07T03:03:56;19.93;;;13.03;;
18580;SDS011;9420;50.876;7.012;2023-12-07T03:06:23;24.37;;;15.03;;
18580;SDS011;9420;50.876;7.012;2023-12-07T03:08:50;23.53;;;15.17;;
18580;SDS011;9420;50.876;7.012;2023-12-07T03:11:16;25.17;;;14.63;;
18580;SDS011;9420;50.876;7.012;2023-12-07T03:13:43;24.83;;;15.63;;
18580;SDS011;9420;50.876;7.012;2023-12-07T03:16:09;22.83;;;13.77;;
18580;SDS011;9420;50.876;7.012;2023-12-07T03:18:36;21.30;;;13.53;;
18580;SDS011;9420;50.876;7.012;2023-12-07T03:21:07;23.70;;;14.07;;
18580;SDS011;9420;50.876;7.012;2023-12-07T03:23:34;22.43;;;13.60;;
18580;SDS011;9420;50.876;7.012;2023-12-07T03:26:02;21.73;;;13.63;;
18580;SDS011;9420;50.876;7.012;2023-12-07T03:28:29;23.90;;;15.07;;
18580;SDS011;9420;50.876;7.012;2023-12-07T03:30:56;24.73;;;15.20;;
18580;SDS011;9420;50.876;7.012;2023-12-07T03:33:22;23.37;;;14.53;;
18580;SDS011;9420;50.876;7.012;2023-12-07T03:35:49;22.50;;;13.80;;
18580;SDS011;9420;50.876;7.012;2023-12-07T03:38:17;20.00;;;13.37;;
18580;SDS011;9420;50.876;7.012;2023-12-07T03:40:44;23.07;;;14.10;;
18580;SDS011;9420;50.876;7.012;2023-12-07T03:43:12;21.93;;;14.47;;
18580;SDS011;9420;50.876;7.012;2023-12-07T03:45:39;21.20;;;13.93;;
18580;SDS011;9420;50.876;7.012;2023-12-07T03:48:06;27.80;;;13.93;;
18580;SDS011;9420;50.876;7.012;2023-12-07T03:50:32;24.47;;;14.00;;
18580;SDS011;9420;50.876;7.012;2023-12-07T03:52:59;22.67;;;14.23;;
18580;SDS011;9420;50.876;7.012;2023-12-07T03:55:27;29.40;;;13.80;;
18580;SDS011;9420;50.876;7.012;2023-12-07T03:57:54;19.73;;;13.87;;
18580;SDS011;9420;50.876;7.012;2023-12-07T04:00:21;22.47;;;13.27;;
18580;SDS011;9420;50.876;7.012;2023-12-07T04:02:47;20.37;;;13.37;;
18580;SDS011;9420;50.876;7.012;2023-12-07T04:05:14;20.70;;;13.53;;
18580;SDS011;9420;50.876;7.012;2023-12-07T04:07:40;17.53;;;12.97;;
18580;SDS011;9420;50.876;7.012;2023-12-07T04:10:07;20.53;;;12.17;;
18580;SDS011;9420;50.876;7.012;2023-12-07T04:12:36;20.53;;;13.00;;
18580;SDS011;9420;50.876;7.012;2023-12-07T04:15:03;22.30;;;12.80;;
18580;SDS011;9420;50.876;7.012;2023-12-07T04:17:30;22.47;;;13.93;;
18580;SDS011;9420;50.876;7.012;2023-12-07T04:19:57;23.20;;;13.47;;
18580;SDS011;9420;50.876;7.012;2023-12-07T04:22:24;19.97;;;13.60;;
18580;SDS011;9420;50.876;7.012;2023-12-07T04:24:50;19.67;;;12.13;;
18580;SDS011;9420;50.876;7.012;2023-12-07T04:27:17;19.77;;;12.73;;
18580;SDS011;9420;50.876;7.012;2023-12-07T04:29:45;24.00;;;13.30;;
18580;SDS011;9420;50.876;7.012;2023-12-07T04:32:12;21.13;;;12.17;;
18580;SDS011;9420;50.876;7.012;2023-12-07T04:34:39;16.87;;;11.47;;
18580;SDS011;9420;50.876;7.012;2023-12-07T04:37:05;19.27;;;12.30;;
18580;SDS011;9420;50.876;7.012;2023-12-07T04:39:32;22.63;;;12.53;;
18580;SDS011;9420;50.876;7.012;2023-12-07T04:41:59;21.27;;;12.77;;
18580;SDS011;9420;50.876;7.012;2023-12-07T04:44:26;15.97;;;11.30;;
18580;SDS011;9420;50.876;7.012;2023-12-07T04:46:54;25.37;;;11.03;;
18580;SDS011;9420;50.876;7.012;2023-12-07T04:49:21;24.10;;;12.37;;
18580;SDS011;9420;50.876;7.012;2023-12-07T04:51:48;17.80;;;11.13;;
18580;SDS011;9420;50.876;7.012;2023-12-07T04:54:14;17.63;;;11.60;;
18580;SDS011;9420;50.876;7.012;2023-12-07T04:56:41;19.03;;;12.40;;
18580;SDS011;9420;50.876;7.012;2023-12-07T04:59:08;18.37;;;11.23;;
18580;SDS011;9420;50.876;7.012;2023-12-07T05:01:36;21.70;;;12.73;;
18580;SDS011;9420;50.876;7.012;2023-12-07T05:04:04;16.43;;;11.30;;
18580;SDS011;9420;50.876;7.012;2023-12-07T05:06:31;17.80;;;11.03;;
18580;SDS011;9420;50.876;7.012;2023-12-07T05:08:58;17.97;;;11.33;;
18580;SDS011;9420;50.876;7.012;2023-12-07T05:11:24;19.43;;;12.43;;
18580;SDS011;9420;50.876;7.012;2023-12-07T05:13:51;22.50;;;11.97;;
18580;SDS011;9420;50.876;7.012;2023-12-07T05:16:18;20.53;;;11.23;;
18580;SDS011;9420;50.876;7.012;2023-12-07T05:18:45;15.43;;;10.43;;
18580;SDS011;9420;50.876;7.012;2023-12-07T05:21:13;18.93;;;12.43;;
18580;SDS011;9420;50.876;7.012;2023-12-07T05:23:39;18.30;;;12.13;;
18580;SDS011;9420;50.876;7.012;2023-12-07T05:26:06;17.43;;;11.23;;
18580;SDS011;9420;50.876;7.012;2023-12-07T05:28:33;18.67;;;11.87;;
18580;SDS011;9420;50.876;7.012;2023-12-07T05:31:02;16.10;;;10.83;;
18580;SDS011;9420;50.876;7.012;2023-12-07T05:33:29;20.67;;;11.07;;
18580;SDS011;9420;50.876;7.012;2023-12-07T05:35:56;20.27;;;12.47;;
18580;SDS011;9420;50.876;7.012;2023-12-07T05:38:25;22.30;;;12.03;;
18580;SDS011;9420;50.876;7.012;2023-12-07T05:40:51;20.87;;;12.67;;
18580;SDS011;9420;50.876;7.012;2023-12-07T05:43:18;23.37;;;12.77;;
18580;SDS011;9420;50.876;7.012;2023-12-07T05:45:45;19.27;;;11.00;;
18580;SDS011;9420;50.876;7.012;2023-12-07T05:48:11;24.33;;;12.50;;
18580;SDS011;9420;50.876;7.012;2023-12-07T05:50:39;21.43;;;11.93;;
18580;SDS011;9420;50.876;7.012;2023-12-07T05:53:05;17.07;;;10.70;;
18580;SDS011;9420;50.876;7.012;2023-12-07T05:55:33;19.53;;;11.87;;
18580;SDS011;9420;50.876;7.012;2023-12-07T05:58:00;21.07;;;12.43;;
18580;SDS011;9420;50.876;7.012;2023-12-07T06:00:27;20.87;;;12.60;;
18580;SDS011;9420;50.876;7.012;2023-12-07T06:02:53;18.93;;;11.40;;
18580;SDS011;9420;50.876;7.012;2023-12-07T06:05:20;16.73;;;11.20;;
18580;SDS011;9420;50.876;7.012;2023-12-07T06:07:47;17.50;;;12.13;;
18580;SDS011;9420;50.876;7.012;2023-12-07T06:10:14;22.73;;;12.50;;
18580;SDS011;9420;50.876;7.012;2023-12-07T06:12:42;19.83;;;12.90;;
18580;SDS011;9420;50.876;7.012;2023-12-07T06:15:09;20.27;;;12.50;;
18580;SDS011;9420;50.876;7.012;2023-12-07T06:17:36;20.67;;;12.17;;
18580;SDS011;9420;50.876;7.012;2023-12-07T06:20:02;23.43;;;13.30;;
18580;SDS011;9420;50.876;7.012;2023-12-07T06:22:30;21.77;;;11.73;;
18580;SDS011;9420;50.876;7.012;2023-12-07T06:24:56;17.03;;;12.10;;
18580;SDS011;9420;50.876;7.012;2023-12-07T06:27:23;21.67;;;11.97;;
18580;SDS011;9420;50.876;7.012;2023-12-07T06:29:51;19.87;;;11.53;;
18580;SDS011;9420;50.876;7.012;2023-12-07T06:32:19;19.03;;;11.17;;
18580;SDS011;9420;50.876;7.012;2023-12-07T06:34:45;21.77;;;10.97;;
18580;SDS011;9420;50.876;7.012;2023-12-07T06:37:12;18.07;;;11.13;;
18580;SDS011;9420;50.876;7.012;2023-12-07T06:39:39;21.13;;;12.13;;
18580;SDS011;9420;50.876;7.012;2023-12-07T06:42:06;26.37;;;14.43;;
18580;SDS011;9420;50.876;7.012;2023-12-07T06:44:33;18.43;;;12.33;;
18580;SDS011;9420;50.876;7.012;2023-12-07T06:47:01;23.30;;;12.97;;
18580;SDS011;9420;50.876;7.012;2023-12-07T06:49:29;18.97;;;12.30;;
18580;SDS011;9420;50.876;7.012;2023-12-07T06:51:56;25.67;;;13.73;;
18580;SDS011;9420;50.876;7.012;2023-12-07T06:54:23;22.73;;;12.97;;
18580;SDS011;9420;50.876;7.012;2023-12-07T06:56:50;23.03;;;12.73;;
18580;SDS011;9420;50.876;7.012;2023-12-07T06:59:17;25.57;;;14.47;;
18580;SDS011;9420;50.876;7.012;2023-12-07T07:01:44;22.80;;;13.40;;
18580;SDS011;9420;50.876;7.012;2023-12-07T07:04:12;25.80;;;16.70;;
18580;SDS011;9420;50.876;7.012;2023-12-07T07:06:39;22.23;;;13.37;;
18580;SDS011;9420;50.876;7.012;2023-12-07T07:09:06;24.00;;;13.50;;
18580;SDS011;9420;50.876;7.012;2023-12-07T07:11:32;24.87;;;13.60;;
18580;SDS011;9420;50.876;7.012;2023-12-07T07:13:59;26.20;;;14.70;;
18580;SDS011;9420;50.876;7.012;2023-12-07T07:16:25;22.97;;;14.40;;
18580;SDS011;9420;50.876;7.012;2023-12-07T07:18:53;29.60;;;14.90;;
18580;SDS011;9420;50.876;7.012;2023-12-07T07:21:21;23.40;;;16.10;;
18580;SDS011;9420;50.876;7.012;2023-12-07T07:23:48;28.60;;;15.53;;
18580;SDS011;9420;50.876;7.012;2023-12-07T07:26:14;28.20;;;15.00;;
18580;SDS011;9420;50.876;7.012;2023-12-07T07:28:42;26.80;;;15.30;;
18580;SDS011;9420;50.876;7.012;2023-12-07T07:31:09;22.97;;;15.13;;
18580;SDS011;9420;50.876;7.012;2023-12-07T07:33:35;27.80;;;16.03;;
18580;SDS011;9420;50.876;7.012;2023-12-07T07:36:02;24.40;;;15.13;;
18580;SDS011;9420;50.876;7.012;2023-12-07T07:38:30;24.03;;;15.73;;
18580;SDS011;9420;50.876;7.012;2023-12-07T07:40:57;25.37;;;14.83;;
18580;SDS011;9420;50.876;7.012;2023-12-07T07:43:23;24.27;;;15.20;;
18580;SDS011;9420;50.876;7.012;2023-12-07T07:45:50;28.77;;;17.23;;
18580;SDS011;9420;50.876;7.012;2023-12-07T07:48:17;24.90;;;15.67;;
18580;SDS011;9420;50.876;7.012;2023-12-07T07:50:43;31.30;;;17.17;;
18580;SDS011;9420;50.876;7.012;2023-12-07T07:53:10;27.57;;;15.67;;
18580;SDS011;9420;50.876;7.012;2023-12-07T07:55:38;27.50;;;17.13;;
18580;SDS011;9420;50.876;7.012;2023-12-07T07:58:05;28.23;;;16.17;;
18580;SDS011;9420;50.876;7.012;2023-12-07T08:00:31;32.57;;;17.80;;
18580;SDS011;9420;50.876;7.012;2023-12-07T08:02:59;30.83;;;17.40;;
18580;SDS011;9420;50.876;7.012;2023-12-07T08:05:28;27.80;;;17.50;;
18580;SDS011;9420;50.876;7.012;2023-12-07T08:07:55;28.77;;;16.53;;
18580;SDS011;9420;50.876;7.012;2023-12-07T08:10:22;27.07;;;17.17;;
18580;SDS011;9420;50.876;7.012;2023-12-07T08:12:50;31.00;;;18.50;;
18580;SDS011;9420;50.876;7.012;2023-12-07T08:15:17;39.43;;;18.13;;
18580;SDS011;9420;50.876;7.012;2023-12-07T08:17:43;29.20;;;16.93;;
18580;SDS011;9420;50.876;7.012;2023-12-07T08:20:11;28.23;;;16.90;;
18580;SDS011;9420;50.876;7.012;2023-12-07T08:22:38;23.97;;;15.27;;
18580;SDS011;9420;50.876;7.012;2023-12-07T08:25:06;28.60;;;17.53;;
18580;SDS011;9420;50.876;7.012;2023-12-07T08:27:34;25.63;;;16.57;;
18580;SDS011;9420;50.876;7.012;2023-12-07T08:30:05;30.53;;;17.10;;
18580;SDS011;9420;50.876;7.012;2023-12-07T08:32:34;29.20;;;17.77;;
18580;SDS011;9420;50.876;7.012;2023-12-07T08:35:00;30.73;;;17.50;;
18580;SDS011;9420;50.876;7.012;2023-12-07T08:37:27;31.70;;;19.87;;
18580;SDS011;9420;50.876;7.012;2023-12-07T08:39:54;29.23;;;18.10;;
18580;SDS011;9420;50.876;7.012;2023-12-07T08:42:20;28.07;;;17.37;;
18580;SDS011;9420;50.876;7.012;2023-12-07T08:44:47;26.93;;;17.80;;
18580;SDS011;9420;50.876;7.012;2023-12-07T08:47:15;35.53;;;18.03;;
18580;SDS011;9420;50.876;7.012;2023-12-07T08:49:42;28.90;;;16.63;;
18580;SDS011;9420;50.876;7.012;2023-12-07T08:52:08;34.87;;;18.27;;
18580;SDS011;9420;50.876;7.012;2023-12-07T08:54:35;30.97;;;16.83;;
18580;SDS011;9420;50.876;7.012;2023-12-07T08:57:02;31.80;;;17.57;;
18580;SDS011;9420;50.876;7.012;2023-12-07T08:59:29;28.03;;;16.93;;
18580;SDS011;9420;50.876;7.012;2023-12-07T09:01:56;28.50;;;17.70;;
18580;SDS011;9420;50.876;7.012;2023-12-07T09:04:24;36.97;;;20.23;;
18580;SDS011;9420;50.876;7.012;2023-12-07T09:06:51;29.77;;;17.63;;
18580;SDS011;9420;50.876;7.012;2023-12-07T09:09:18;30.53;;;17.53;;
18580;SDS011;9420;50.876;7.012;2023-12-07T09:11:45;30.87;;;17.43;;
18580;SDS011;9420;50.876;7.012;2023-12-07T09:14:12;27.37;;;17.23;;
18580;SDS011;9420;50.876;7.012;2023-12-07T09:16:42;30.97;;;18.23;;
18580;SDS011;9420;50.876;7.012;2023-12-07T09:19:09;31.30;;;19.30;;
18580;SDS011;9420;50.876;7.012;2023-12-07T09:21:38;32.20;;;18.97;;
18580;SDS011;9420;50.876;7.012;2023-12-07T09:24:05;31.87;;;17.50;;
18580;SDS011;9420;50.876;7.012;2023-12-07T09:26:32;28.87;;;17.53;;
18580;SDS011;9420;50.876;7.012;2023-12-07T09:28:59;35.67;;;18.00;;
18580;SDS011;9420;50.876;7.012;2023-12-07T09:31:26;32.43;;;18.73;;
18580;SDS011;9420;50.876;7.012;2023-12-07T09:33:52;33.77;;;18.07;;
18580;SDS011;9420;50.876;7.012;2023-12-07T09:36:19;32.43;;;19.50;;
18580;SDS011;9420;50.876;7.012;2023-12-07T09:38:48;31.10;;;17.70;;
18580;SDS011;9420;50.876;7.012;2023-12-07T09:41:14;32.40;;;17.83;;
18580;SDS011;9420;50.876;7.012;2023-12-07T09:43:42;35.33;;;19.60;;
18580;SDS011;9420;50.876;7.012;2023-12-07T09:46:08;32.57;;;19.23;;
18580;SDS011;9420;50.876;7.012;2023-12-07T09:48:35;33.87;;;17.70;;
18580;SDS011;9420;50.876;7.012;2023-12-07T09:51:03;32.13;;;17.90;;
18580;SDS011;9420;50.876;7.012;2023-12-07T09:53:32;30.83;;;17.90;;
18580;SDS011;9420;50.876;7.012;2023-12-07T09:56:01;30.50;;;18.17;;
18580;SDS011;9420;50.876;7.012;2023-12-07T09:58:28;30.30;;;18.40;;
18580;SDS011;9420;50.876;7.012;2023-12-07T10:00:55;28.83;;;17.80;;
18580;SDS011;9420;50.876;7.012;2023-12-07T10:03:22;38.20;;;18.27;;
18580;SDS011;9420;50.876;7.012;2023-12-07T10:05:53;31.60;;;17.73;;
18580;SDS011;9420;50.876;7.012;2023-12-07T10:08:25;30.13;;;17.57;;
18580;SDS011;9420;50.876;7.012;2023-12-07T10:11:02;33.57;;;18.03;;
18580;SDS011;9420;50.876;7.012;2023-12-07T10:13:30;32.53;;;17.93;;
18580;SDS011;9420;50.876;7.012;2023-12-07T10:16:09;28.90;;;16.97;;
18580;SDS011;9420;50.876;7.012;2023-12-07T10:18:38;28.57;;;17.00;;
18580;SDS011;9420;50.876;7.012;2023-12-07T10:21:06;32.60;;;17.00;;
18580;SDS011;9420;50.876;7.012;2023-12-07T10:23:34;29.63;;;16.57;;
18580;SDS011;9420;50.876;7.012;2023-12-07T10:26:02;29.50;;;17.60;;
18580;SDS011;9420;50.876;7.012;2023-12-07T10:28:31;23.67;;;15.33;;
18580;SDS011;9420;50.876;7.012;2023-12-07T10:31:02;26.80;;;16.47;;
18580;SDS011;9420;50.876;7.012;2023-12-07T10:33:29;22.57;;;15.83;;
18580;SDS011;9420;50.876;7.012;2023-12-07T10:35:55;24.53;;;14.67;;
18580;SDS011;9420;50.876;7.012;2023-12-07T10:38:22;27.37;;;14.63;;
18580;SDS011;9420;50.876;7.012;2023-12-07T10:40:48;23.67;;;14.83;;
18580;SDS011;9420;50.876;7.012;2023-12-07T10:43:24;21.70;;;13.93;;
18580;SDS011;9420;50.876;7.012;2023-12-07T10:45:51;22.30;;;14.73;;
18580;SDS011;9420;50.876;7.012;2023-12-07T10:48:18;22.83;;;13.67;;
18580;SDS011;9420;50.876;7.012;2023-12-07T10:50:46;22.23;;;13.43;;
18580;SDS011;9420;50.876;7.012;2023-12-07T10:53:18;19.73;;;13.50;;
18580;SDS011;9420;50.876;7.012;2023-12-07T10:55:52;22.57;;;13.27;;
18580;SDS011;9420;50.876;7.012;2023-12-07T10:58:24;19.20;;;13.30;;
18580;SDS011;9420;50.876;7.012;2023-12-07T11:00:52;20.70;;;13.10;;
18580;SDS011;9420;50.876;7.012;2023-12-07T11:03:19;15.73;;;11.70;;
18580;SDS011;9420;50.876;7.012;2023-12-07T11:05:47;18.47;;;11.47;;
18580;SDS011;9420;50.876;7.012;2023-12-07T11:08:15;20.63;;;12.93;;
18580;SDS011;9420;50.876;7.012;2023-12-07T11:10:50;16.70;;;10.93;;
18580;SDS011;9420;50.876;7.012;2023-12-07T11:13:27;17.20;;;11.20;;
18580;SDS011;9420;50.876;7.012;2023-12-07T11:15:55;18.17;;;11.60;;
18580;SDS011;9420;50.876;7.012;2023-12-07T11:18:24;21.13;;;11.97;;
18580;SDS011;9420;50.876;7.012;2023-12-07T11:20:51;16.47;;;10.93;;
18580;SDS011;9420;50.876;7.012;2023-12-07T11:23:20;19.10;;;11.57;;
18580;SDS011;9420;50.876;7.012;2023-12-07T11:25:47;14.97;;;11.00;;
18580;SDS011;9420;50.876;7.012;2023-12-07T11:28:15;14.30;;;11.13;;
18580;SDS011;9420;50.876;7.012;2023-12-07T11:30:44;18.13;;;11.50;;
18580;SDS011;9420;50.876;7.012;2023-12-07T11:33:12;13.40;;;9.80;;
18580;SDS011;9420;50.876;7.012;2023-12-07T11:38:31;18.77;;;10.37;;
18580;SDS011;9420;50.876;7.012;2023-12-07T11:40:57;18.03;;;9.80;;
18580;SDS011;9420;50.876;7.012;2023-12-07T11:43:40;13.37;;;9.53;;
18580;SDS011;9420;50.876;7.012;2023-12-07T11:46:10;13.23;;;9.03;;
18580;SDS011;9420;50.876;7.012;2023-12-07T11:48:39;14.20;;;9.70;;
18580;SDS011;9420;50.876;7.012;2023-12-07T11:51:06;15.57;;;9.13;;
18580;SDS011;9420;50.876;7.012;2023-12-07T11:53:34;16.90;;;8.90;;
18580;SDS011;9420;50.876;7.012;2023-12-07T11:56:02;12.70;;;8.20;;
18580;SDS011;9420;50.876;7.012;2023-12-07T11:58:31;11.57;;;8.80;;
18580;SDS011;9420;50.876;7.012;2023-12-07T12:01:00;13.43;;;9.17;;
18580;SDS011;9420;50.876;7.012;2023-12-07T12:03:29;11.67;;;8.43;;
18580;SDS011;9420;50.876;7.012;2023-12-07T12:05:57;14.23;;;8.83;;
18580;SDS011;9420;50.876;7.012;2023-12-07T12:08:24;14.47;;;8.63;;
18580;SDS011;9420;50.876;7.012;2023-12-07T12:10:51;14.00;;;7.70;;
18580;SDS011;9420;50.876;7.012;2023-12-07T12:13:19;12.20;;;8.17;;
18580;SDS011;9420;50.876;7.012;2023-12-07T12:15:46;12.57;;;7.67;;
18580;SDS011;9420;50.876;7.012;2023-12-07T12:18:12;11.37;;;6.77;;
18580;SDS011;9420;50.876;7.012;2023-12-07T12:20:43;9.57;;;6.50;;
18580;SDS011;9420;50.876;7.012;2023-12-07T12:23:10;8.37;;;5.87;;
18580;SDS011;9420;50.876;7.012;2023-12-07T12:25:37;10.53;;;6.53;;
18580;SDS011;9420;50.876;7.012;2023-12-07T12:28:05;12.80;;;6.07;;
18580;SDS011;9420;50.876;7.012;2023-12-07T12:30:32;9.17;;;5.67;;
18580;SDS011;9420;50.876;7.012;2023-12-07T12:32:59;7.67;;;5.70;;
18580;SDS011;9420;50.876;7.012;2023-12-07T12:35:26;7.47;;;5.73;;
18580;SDS011;9420;50.876;7.012;2023-12-07T12:37:54;11.60;;;6.23;;
18580;SDS011;9420;50.876;7.012;2023-12-07T12:40:22;7.97;;;6.03;;
18580;SDS011;9420;50.876;7.012;2023-12-07T12:42:50;7.77;;;6.60;;
18580;SDS011;9420;50.876;7.012;2023-12-07T12:45:17;9.70;;;6.07;;
18580;SDS011;9420;50.876;7.012;2023-12-07T12:47:45;8.03;;;5.83;;
18580;SDS011;9420;50.876;7.012;2023-12-07T12:50:13;12.33;;;5.47;;
18580;SDS011;9420;50.876;7.012;2023-12-07T12:53:00;9.07;;;5.43;;
18580;SDS011;9420;50.876;7.012;2023-12-07T12:55:30;7.03;;;5.20;;
18580;SDS011;9420;50.876;7.012;2023-12-07T12:57:57;12.33;;;5.17;;
18580;SDS011;9420;50.876;7.012;2023-12-07T13:00:24;7.13;;;5.77;;
18580;SDS011;9420;50.876;7.012;2023-12-07T13:02:51;8.73;;;5.83;;
18580;SDS011;9420;50.876;7.012;2023-12-07T13:05:18;6.87;;;5.43;;
18580;SDS011;9420;50.876;7.012;2023-12-07T13:07:45;6.20;;;4.90;;
18580;SDS011;9420;50.876;7.012;2023-12-07T13:10:15;6.33;;;4.47;;
18580;SDS011;9420;50.876;7.012;2023-12-07T13:12:41;6.73;;;5.40;;
18580;SDS011;9420;50.876;7.012;2023-12-07T13:15:09;9.33;;;5.77;;
18580;SDS011;9420;50.876;7.012;2023-12-07T13:17:36;8.03;;;4.87;;
18580;SDS011;9420;50.876;7.012;2023-12-07T13:20:04;8.30;;;5.13;;
18580;SDS011;9420;50.876;7.012;2023-12-07T13:22:31;7.83;;;4.70;;
18580;SDS011;9420;50.876;7.012;2023-12-07T13:24:58;6.70;;;4.53;;
18580;SDS011;9420;50.876;7.012;2023-12-07T13:27:26;8.77;;;5.03;;
18580;SDS011;9420;50.876;7.012;2023-12-07T13:29:53;6.30;;;4.20;;
18580;SDS011;9420;50.876;7.012;2023-12-07T13:32:20;9.20;;;4.67;;
18580;SDS011;9420;50.876;7.012;2023-12-07T13:34:47;6.60;;;4.17;;
18580;SDS011;9420;50.876;7.012;2023-12-07T13:37:13;6.50;;;4.40;;
18580;SDS011;9420;50.876;7.012;2023-12-07T13:39:40;7.17;;;4.17;;
18580;SDS011;9420;50.876;7.012;2023-12-07T13:42:08;8.57;;;3.97;;
18580;SDS011;9420;50.876;7.012;2023-12-07T13:44:36;7.07;;;4.20;;
18580;SDS011;9420;50.876;7.012;2023-12-07T13:47:03;6.63;;;4.90;;
18580;SDS011;9420;50.876;7.012;2023-12-07T13:49:29;9.10;;;4.63;;
18580;SDS011;9420;50.876;7.012;2023-12-07T13:51:56;11.40;;;5.27;;
18580;SDS011;9420;50.876;7.012;2023-12-07T13:54:25;6.60;;;4.60;;
18580;SDS011;9420;50.876;7.012;2023-12-07T13:56:51;11.17;;;5.70;;
18580;SDS011;9420;50.876;7.012;2023-12-07T13:59:19;7.40;;;4.97;;
18580;SDS011;9420;50.876;7.012;2023-12-07T14:01:48;7.73;;;4.70;;
18580;SDS011;9420;50.876;7.012;2023-12-07T14:04:19;7.70;;;5.67;;
18580;SDS011;9420;50.876;7.012;2023-12-07T14:06:46;9.30;;;5.70;;
18580;SDS011;9420;50.876;7.012;2023-12-07T14:09:12;9.07;;;5.13;;
18580;SDS011;9420;50.876;7.012;2023-12-07T14:11:40;7.40;;;5.23;;
18580;SDS011;9420;50.876;7.012;2023-12-07T14:14:06;9.03;;;5.70;;
18580;SDS011;9420;50.876;7.012;2023-12-07T14:16:33;10.77;;;6.13;;
18580;SDS011;9420;50.876;7.012;2023-12-07T14:19:01;9.90;;;6.47;;
18580;SDS011;9420;50.876;7.012;2023-12-07T14:21:28;14.30;;;7.13;;
18580;SDS011;9420;50.876;7.012;2023-12-07T14:23:55;8.43;;;5.70;;
18580;SDS011;9420;50.876;7.012;2023-12-07T14:26:23;8.73;;;6.87;;
18580;SDS011;9420;50.876;7.012;2023-12-07T14:28:50;10.03;;;6.03;;
18580;SDS011;9420;50.876;7.012;2023-12-07T14:31:16;11.33;;;7.03;;
18580;SDS011;9420;50.876;7.012;2023-12-07T14:33:44;11.10;;;7.13;;
18580;SDS011;9420;50.876;7.012;2023-12-07T14:36:12;12.03;;;7.53;;
18580;SDS011;9420;50.876;7.012;2023-12-07T14:38:38;12.93;;;8.23;;
18580;SDS011;9420;50.876;7.012;2023-12-07T14:41:06;11.37;;;8.07;;
18580;SDS011;9420;50.876;7.012;2023-12-07T14:43:33;13.60;;;7.27;;
18580;SDS011;9420;50.876;7.012;2023-12-07T14:45:59;13.33;;;7.40;;
18580;SDS011;9420;50.876;7.012;2023-12-07T14:48:27;15.03;;;7.33;;